sensor_id;sensor_type;location;lat;lon;timestamp;pressure;altitude;pressure_sealevel;temperature;humidity
12594;BME280;6362;50.208;9.182;2023-04-26T00:02:11;99987.69;;;2.65;78.39
12594;BME280;6362;50.208;9.182;2023-04-26T00:04:39;99980.56;;;2.55;78.47
12594;BME280;6362;50.208;9.182;2023-04-26T00:07:05;99987.25;;;2.49;78.40
12594;BME280;6362;50.208;9.182;2023-04-26T00:09:32;99986.34;;;2.45;78.21
12594;BME280;6362;50.208;9.182;2023-04-26T00:11:57;99986.25;;;2.42;78.84
12594;BME280;6362;50.208;9.182;2023-04-26T00:14:23;99977.44;;;2.32;78.89
12594;BME280;6362;50.208;9.182;2023-04-26T00:16:48;99988.63;;;2.34;78.92
12594;BME280;6362;50.208;9.182;2023-04-26T00:19:13;99981.47;;;2.23;79.18
12594;BME280;6362;50.208;9.182;2023-04-26T00:21:40;99990.63;;;2.15;79.20
12594;BME280;6362;50.208;9.182;2023-04-26T00:24:06;99993.22;;;2.15;79.71
12594;BME280;6362;50.208;9.182;2023-04-26T00:26:32;99997.44;;;2.13;79.88
12594;BME280;6362;50.208;9.182;2023-04-26T00:28:58;99993.00;;;2.07;79.97
12594;BME280;6362;50.208;9.182;2023-04-26T00:31:24;99996.31;;;2.03;80.10
12594;BME280;6362;50.208;9.182;2023-04-26T00:33:50;100013.22;;;1.96;79.89
12594;BME280;6362;50.208;9.182;2023-04-26T00:36:15;99997.72;;;1.92;80.16
12594;BME280;6362;50.208;9.182;2023-04-26T00:38:44;100002.84;;;1.92;80.32
12594;BME280;6362;50.208;9.182;2023-04-26T00:41:09;99997.56;;;1.87;80.35
12594;BME280;6362;50.208;9.182;2023-04-26T00:43:35;100011.94;;;1.82;80.79
12594;BME280;6362;50.208;9.182;2023-04-26T00:46:02;100003.41;;;1.81;80.58
12594;BME280;6362;50.208;9.182;2023-04-26T00:48:27;100000.66;;;1.75;80.68
12594;BME280;6362;50.208;9.182;2023-04-26T00:50:53;100000.53;;;1.71;80.58
12594;BME280;6362;50.208;9.182;2023-04-26T00:53:19;100003.94;;;1.71;80.83
12594;BME280;6362;50.208;9.182;2023-04-26T00:55:45;100002.06;;;1.66;80.71
12594;BME280;6362;50.208;9.182;2023-04-26T00:58:10;100008.03;;;1.65;80.70
12594;BME280;6362;50.208;9.182;2023-04-26T01:00:36;100002.03;;;1.64;80.20
12594;BME280;6362;50.208;9.182;2023-04-26T01:03:02;100010.75;;;1.69;81.15
12594;BME280;6362;50.208;9.182;2023-04-26T01:05:27;100010.16;;;1.78;82.01
12594;BME280;6362;50.208;9.182;2023-04-26T01:07:53;100013.50;;;1.77;82.11
12594;BME280;6362;50.208;9.182;2023-04-26T01:10:18;100017.78;;;1.76;82.16
12594;BME280;6362;50.208;9.182;2023-04-26T01:12:44;100016.53;;;1.62;82.16
12594;BME280;6362;50.208;9.182;2023-04-26T01:15:10;100017.25;;;1.58;82.08
12594;BME280;6362;50.208;9.182;2023-04-26T01:17:36;100021.19;;;1.47;81.75
12594;BME280;6362;50.208;9.182;2023-04-26T01:20:05;100016.59;;;1.37;81.66
12594;BME280;6362;50.208;9.182;2023-04-26T01:22:34;100016.44;;;1.32;82.05
12594;BME280;6362;50.208;9.182;2023-04-26T01:25:00;100021.34;;;1.24;82.07
12594;BME280;6362;50.208;9.182;2023-04-26T01:27:28;100014.53;;;1.25;82.55
12594;BME280;6362;50.208;9.182;2023-04-26T01:29:53;100012.78;;;1.24;82.84
12594;BME280;6362;50.208;9.182;2023-04-26T01:32:19;100012.69;;;1.21;82.23
12594;BME280;6362;50.208;9.182;2023-04-26T01:34:45;100011.00;;;1.21;83.06
12594;BME280;6362;50.208;9.182;2023-04-26T01:37:10;100011.47;;;1.37;83.42
12594;BME280;6362;50.208;9.182;2023-04-26T01:39:36;100004.25;;;1.23;83.58
12594;BME280;6362;50.208;9.182;2023-04-26T01:42:02;100009.91;;;1.13;82.83
12594;BME280;6362;50.208;9.182;2023-04-26T01:44:29;100008.84;;;1.07;83.21
12594;BME280;6362;50.208;9.182;2023-04-26T01:46:54;100013.09;;;1.06;83.03
12594;BME280;6362;50.208;9.182;2023-04-26T01:49:20;100003.53;;;1.00;83.49
12594;BME280;6362;50.208;9.182;2023-04-26T01:51:45;99999.19;;;0.99;83.90
12594;BME280;6362;50.208;9.182;2023-04-26T01:54:11;99999.88;;;0.94;83.93
12594;BME280;6362;50.208;9.182;2023-04-26T01:56:36;100001.50;;;0.90;84.34
12594;BME280;6362;50.208;9.182;2023-04-26T01:59:02;100001.63;;;0.95;83.97
12594;BME280;6362;50.208;9.182;2023-04-26T02:01:27;100002.06;;;1.09;84.12
12594;BME280;6362;50.208;9.182;2023-04-26T02:03:52;100012.25;;;1.07;84.46
12594;BME280;6362;50.208;9.182;2023-04-26T02:06:18;100005.94;;;0.96;84.05
12594;BME280;6362;50.208;9.182;2023-04-26T02:08:44;100000.47;;;0.85;84.28
12594;BME280;6362;50.208;9.182;2023-04-26T02:11:10;100007.09;;;0.78;84.33
12594;BME280;6362;50.208;9.182;2023-04-26T02:13:36;100010.41;;;0.76;84.43
12594;BME280;6362;50.208;9.182;2023-04-26T02:16:02;100005.06;;;0.70;84.01
12594;BME280;6362;50.208;9.182;2023-04-26T02:18:27;100018.53;;;0.64;84.23
12594;BME280;6362;50.208;9.182;2023-04-26T02:20:54;100008.25;;;0.63;84.42
12594;BME280;6362;50.208;9.182;2023-04-26T02:23:20;100012.34;;;0.58;84.09
12594;BME280;6362;50.208;9.182;2023-04-26T02:25:46;100014.13;;;0.60;83.75
12594;BME280;6362;50.208;9.182;2023-04-26T02:28:13;100017.44;;;0.56;83.49
12594;BME280;6362;50.208;9.182;2023-04-26T02:30:38;100013.69;;;0.46;83.66
12594;BME280;6362;50.208;9.182;2023-04-26T02:33:04;100011.88;;;0.44;84.39
12594;BME280;6362;50.208;9.182;2023-04-26T02:35:29;100009.22;;;0.41;84.58
12594;BME280;6362;50.208;9.182;2023-04-26T02:37:55;100009.22;;;0.41;84.78
12594;BME280;6362;50.208;9.182;2023-04-26T02:40:20;100012.47;;;0.37;85.11
12594;BME280;6362;50.208;9.182;2023-04-26T02:42:46;100009.94;;;0.37;84.83
12594;BME280;6362;50.208;9.182;2023-04-26T02:45:12;100011.66;;;0.38;84.97
12594;BME280;6362;50.208;9.182;2023-04-26T02:47:37;100015.16;;;0.40;85.29
12594;BME280;6362;50.208;9.182;2023-04-26T02:50:07;100011.88;;;0.44;85.48
12594;BME280;6362;50.208;9.182;2023-04-26T02:52:34;100014.00;;;0.56;85.38
12594;BME280;6362;50.208;9.182;2023-04-26T02:54:59;100009.88;;;0.61;85.35
12594;BME280;6362;50.208;9.182;2023-04-26T02:57:28;99999.06;;;0.44;84.85
12594;BME280;6362;50.208;9.182;2023-04-26T02:59:54;100007.22;;;0.32;84.98
12594;BME280;6362;50.208;9.182;2023-04-26T03:02:20;100009.50;;;0.24;85.18
12594;BME280;6362;50.208;9.182;2023-04-26T03:04:45;100015.16;;;0.16;85.44
12594;BME280;6362;50.208;9.182;2023-04-26T03:07:12;100009.75;;;0.07;85.34
12594;BME280;6362;50.208;9.182;2023-04-26T03:09:37;100016.31;;;0.00;85.29
12594;BME280;6362;50.208;9.182;2023-04-26T03:12:06;100010.31;;;-0.01;86.05
12594;BME280;6362;50.208;9.182;2023-04-26T03:14:32;100003.53;;;0.00;85.25
12594;BME280;6362;50.208;9.182;2023-04-26T03:16:58;100010.22;;;-0.04;85.55
12594;BME280;6362;50.208;9.182;2023-04-26T03:19:24;100009.75;;;0.07;85.83
12594;BME280;6362;50.208;9.182;2023-04-26T03:21:50;100015.22;;;0.17;86.14
12594;BME280;6362;50.208;9.182;2023-04-26T03:24:15;100012.09;;;0.26;86.04
12594;BME280;6362;50.208;9.182;2023-04-26T03:26:40;100011.03;;;0.19;86.47
12594;BME280;6362;50.208;9.182;2023-04-26T03:29:06;100011.53;;;0.09;85.89
12594;BME280;6362;50.208;9.182;2023-04-26T03:31:31;100016.38;;;0.02;86.21
12594;BME280;6362;50.208;9.182;2023-04-26T03:33:57;100015.28;;;-0.05;86.73
12594;BME280;6362;50.208;9.182;2023-04-26T03:36:22;100014.38;;;-0.06;86.78
12594;BME280;6362;50.208;9.182;2023-04-26T03:38:48;100016.91;;;-0.07;86.48
12594;BME280;6362;50.208;9.182;2023-04-26T03:41:13;100015.69;;;-0.17;86.16
12594;BME280;6362;50.208;9.182;2023-04-26T03:43:38;100019.28;;;-0.12;86.47
12594;BME280;6362;50.208;9.182;2023-04-26T03:46:04;100021.91;;;-0.10;86.92
12594;BME280;6362;50.208;9.182;2023-04-26T03:48:29;100012.16;;;-0.20;86.62
12594;BME280;6362;50.208;9.182;2023-04-26T03:50:55;100019.53;;;-0.28;86.75
12594;BME280;6362;50.208;9.182;2023-04-26T03:53:20;100028.97;;;-0.27;86.75
12594;BME280;6362;50.208;9.182;2023-04-26T03:55:46;100029.69;;;-0.30;87.33
12594;BME280;6362;50.208;9.182;2023-04-26T03:58:12;100018.56;;;-0.32;87.12
12594;BME280;6362;50.208;9.182;2023-04-26T04:00:38;100027.06;;;-0.33;87.31
12594;BME280;6362;50.208;9.182;2023-04-26T04:03:05;100028.78;;;-0.32;87.01
12594;BME280;6362;50.208;9.182;2023-04-26T04:05:31;100033.25;;;-0.26;87.28
12594;BME280;6362;50.208;9.182;2023-04-26T04:07:56;100021.69;;;-0.16;87.12
12594;BME280;6362;50.208;9.182;2023-04-26T04:10:22;100028.72;;;-0.11;87.25
12594;BME280;6362;50.208;9.182;2023-04-26T04:12:51;100024.25;;;-0.16;86.85
12594;BME280;6362;50.208;9.182;2023-04-26T04:15:18;100021.41;;;-0.24;86.65
12594;BME280;6362;50.208;9.182;2023-04-26T04:17:44;100022.00;;;-0.31;86.82
12594;BME280;6362;50.208;9.182;2023-04-26T04:20:10;100024.53;;;-0.31;86.86
12594;BME280;6362;50.208;9.182;2023-04-26T04:22:36;100024.31;;;-0.37;87.00
12594;BME280;6362;50.208;9.182;2023-04-26T04:25:05;100019.09;;;-0.40;87.09
12594;BME280;6362;50.208;9.182;2023-04-26T04:27:30;100019.63;;;-0.27;87.22
12594;BME280;6362;50.208;9.182;2023-04-26T04:29:56;100019.66;;;-0.01;86.49
12594;BME280;6362;50.208;9.182;2023-04-26T04:32:22;100013.25;;;-0.14;86.46
12594;BME280;6362;50.208;9.182;2023-04-26T04:34:48;100018.19;;;-0.18;87.20
12594;BME280;6362;50.208;9.182;2023-04-26T04:37:16;100015.41;;;-0.24;87.10
12594;BME280;6362;50.208;9.182;2023-04-26T04:39:42;100028.19;;;-0.24;87.07
12594;BME280;6362;50.208;9.182;2023-04-26T04:42:08;100020.53;;;-0.24;87.81
12594;BME280;6362;50.208;9.182;2023-04-26T04:44:34;100024.00;;;-0.22;87.06
12594;BME280;6362;50.208;9.182;2023-04-26T04:47:01;100037.69;;;-0.22;87.68
12594;BME280;6362;50.208;9.182;2023-04-26T04:49:26;100034.31;;;-0.21;87.07
12594;BME280;6362;50.208;9.182;2023-04-26T04:51:52;100036.13;;;-0.17;87.68
12594;BME280;6362;50.208;9.182;2023-04-26T04:54:17;100031.59;;;-0.02;86.74
12594;BME280;6362;50.208;9.182;2023-04-26T04:56:44;100029.97;;;0.01;86.32
12594;BME280;6362;50.208;9.182;2023-04-26T04:59:12;100038.34;;;-0.04;86.34
12594;BME280;6362;50.208;9.182;2023-04-26T05:01:37;100038.50;;;0.01;86.82
12594;BME280;6362;50.208;9.182;2023-04-26T05:04:04;100043.78;;;0.06;86.87
12594;BME280;6362;50.208;9.182;2023-04-26T05:06:30;100045.63;;;0.10;86.99
12594;BME280;6362;50.208;9.182;2023-04-26T05:08:58;100052.72;;;0.17;87.27
12594;BME280;6362;50.208;9.182;2023-04-26T05:11:25;100049.34;;;0.18;86.54
12594;BME280;6362;50.208;9.182;2023-04-26T05:13:51;100064.53;;;0.13;86.70
12594;BME280;6362;50.208;9.182;2023-04-26T05:16:17;100060.16;;;0.11;86.34
12594;BME280;6362;50.208;9.182;2023-04-26T05:18:42;100065.34;;;0.12;86.27
12594;BME280;6362;50.208;9.182;2023-04-26T05:21:08;100061.97;;;0.13;86.26
12594;BME280;6362;50.208;9.182;2023-04-26T05:23:33;100070.63;;;0.17;85.91
12594;BME280;6362;50.208;9.182;2023-04-26T05:26:02;100081.09;;;0.48;87.80
12594;BME280;6362;50.208;9.182;2023-04-26T05:28:29;100081.13;;;1.52;92.28
12594;BME280;6362;50.208;9.182;2023-04-26T05:30:54;100086.00;;;2.30;93.14
12594;BME280;6362;50.208;9.182;2023-04-26T05:33:20;100093.19;;;2.43;90.59
12594;BME280;6362;50.208;9.182;2023-04-26T05:35:46;100081.78;;;2.63;88.36
12594;BME280;6362;50.208;9.182;2023-04-26T05:38:11;100088.50;;;2.91;87.44
12594;BME280;6362;50.208;9.182;2023-04-26T05:40:36;100097.22;;;3.31;83.53
12594;BME280;6362;50.208;9.182;2023-04-26T05:43:02;100096.00;;;3.53;81.98
12594;BME280;6362;50.208;9.182;2023-04-26T05:45:27;100100.19;;;3.86;82.48
12594;BME280;6362;50.208;9.182;2023-04-26T05:47:53;100088.66;;;4.08;80.01
12594;BME280;6362;50.208;9.182;2023-04-26T05:50:18;100089.66;;;4.14;73.45
12594;BME280;6362;50.208;9.182;2023-04-26T05:52:44;100084.41;;;4.10;72.01
12594;BME280;6362;50.208;9.182;2023-04-26T05:55:09;100094.09;;;3.82;72.42
12594;BME280;6362;50.208;9.182;2023-04-26T05:57:35;100095.50;;;3.68;72.39
12594;BME280;6362;50.208;9.182;2023-04-26T06:00:01;100101.28;;;3.59;72.54
12594;BME280;6362;50.208;9.182;2023-04-26T06:02:27;100096.69;;;3.44;72.93
12594;BME280;6362;50.208;9.182;2023-04-26T06:04:52;100096.81;;;3.51;73.41
12594;BME280;6362;50.208;9.182;2023-04-26T06:07:18;100096.59;;;3.41;73.89
12594;BME280;6362;50.208;9.182;2023-04-26T06:09:43;100104.06;;;3.32;73.35
12594;BME280;6362;50.208;9.182;2023-04-26T06:12:09;100096.44;;;3.34;74.11
12594;BME280;6362;50.208;9.182;2023-04-26T06:14:34;100100.19;;;3.48;73.87
12594;BME280;6362;50.208;9.182;2023-04-26T06:17:00;100107.16;;;3.54;73.56
12594;BME280;6362;50.208;9.182;2023-04-26T06:19:26;100108.25;;;3.63;73.57
12594;BME280;6362;50.208;9.182;2023-04-26T06:21:51;100104.13;;;3.71;73.15
12594;BME280;6362;50.208;9.182;2023-04-26T06:24:19;100105.19;;;3.78;73.01
12594;BME280;6362;50.208;9.182;2023-04-26T06:26:44;100108.75;;;3.85;73.09
12594;BME280;6362;50.208;9.182;2023-04-26T06:29:10;100113.91;;;3.85;72.88
12594;BME280;6362;50.208;9.182;2023-04-26T06:31:35;100114.78;;;3.87;72.25
12594;BME280;6362;50.208;9.182;2023-04-26T06:34:01;100109.97;;;4.02;72.78
12594;BME280;6362;50.208;9.182;2023-04-26T06:36:27;100116.38;;;4.21;71.88
12594;BME280;6362;50.208;9.182;2023-04-26T06:38:52;100110.53;;;4.28;71.49
12594;BME280;6362;50.208;9.182;2023-04-26T06:41:18;100115.22;;;4.47;70.94
12594;BME280;6362;50.208;9.182;2023-04-26T06:43:44;100120.47;;;4.52;70.67
12594;BME280;6362;50.208;9.182;2023-04-26T06:46:09;100121.56;;;4.65;70.23
12594;BME280;6362;50.208;9.182;2023-04-26T06:48:35;100116.69;;;4.80;69.16
12594;BME280;6362;50.208;9.182;2023-04-26T06:51:07;100118.41;;;4.78;70.31
12594;BME280;6362;50.208;9.182;2023-04-26T06:53:33;100118.41;;;4.78;69.88
12594;BME280;6362;50.208;9.182;2023-04-26T06:56:00;100122.09;;;4.94;69.44
12594;BME280;6362;50.208;9.182;2023-04-26T06:58:25;100124.81;;;5.01;70.01
12594;BME280;6362;50.208;9.182;2023-04-26T07:00:51;100125.91;;;5.14;69.39
12594;BME280;6362;50.208;9.182;2023-04-26T07:03:16;100114.34;;;5.42;68.84
12594;BME280;6362;50.208;9.182;2023-04-26T07:05:42;100117.09;;;5.54;68.30
12594;BME280;6362;50.208;9.182;2023-04-26T07:08:07;100128.66;;;5.78;68.20
12594;BME280;6362;50.208;9.182;2023-04-26T07:10:32;100122.94;;;5.97;67.49
12594;BME280;6362;50.208;9.182;2023-04-26T07:12:59;100122.38;;;6.18;67.41
12594;BME280;6362;50.208;9.182;2023-04-26T07:15:24;100114.78;;;6.30;66.48
12594;BME280;6362;50.208;9.182;2023-04-26T07:17:50;100114.13;;;6.48;65.10
12594;BME280;6362;50.208;9.182;2023-04-26T07:20:15;100104.78;;;6.59;65.41
12594;BME280;6362;50.208;9.182;2023-04-26T07:22:44;100105.69;;;6.61;65.13
12594;BME280;6362;50.208;9.182;2023-04-26T07:25:10;100105.94;;;6.83;64.53
12594;BME280;6362;50.208;9.182;2023-04-26T07:27:36;100107.75;;;6.95;64.16
12594;BME280;6362;50.208;9.182;2023-04-26T07:30:02;100106.16;;;7.06;63.50
12594;BME280;6362;50.208;9.182;2023-04-26T07:32:27;100108.75;;;7.10;63.14
12594;BME280;6362;50.208;9.182;2023-04-26T07:34:53;100104.53;;;7.22;61.90
12594;BME280;6362;50.208;9.182;2023-04-26T07:37:18;100107.22;;;7.28;60.41
12594;BME280;6362;50.208;9.182;2023-04-26T07:39:44;100109.03;;;7.41;59.36
12594;BME280;6362;50.208;9.182;2023-04-26T07:42:09;100106.63;;;7.65;57.53
12594;BME280;6362;50.208;9.182;2023-04-26T07:44:34;100102.38;;;7.74;55.22
12594;BME280;6362;50.208;9.182;2023-04-26T07:47:00;100098.06;;;7.76;55.38
12594;BME280;6362;50.208;9.182;2023-04-26T07:49:25;100087.91;;;8.08;55.17
12594;BME280;6362;50.208;9.182;2023-04-26T07:51:51;100087.94;;;8.21;55.41
12594;BME280;6362;50.208;9.182;2023-04-26T07:54:17;100088.09;;;8.48;54.18
12594;BME280;6362;50.208;9.182;2023-04-26T07:56:42;100097.59;;;8.47;53.82
12594;BME280;6362;50.208;9.182;2023-04-26T07:59:08;100098.56;;;8.80;53.50
12594;BME280;6362;50.208;9.182;2023-04-26T08:01:33;100099.44;;;8.85;53.42
12594;BME280;6362;50.208;9.182;2023-04-26T08:03:59;100097.72;;;8.93;50.75
12594;BME280;6362;50.208;9.182;2023-04-26T08:06:24;100089.06;;;8.98;48.71
12594;BME280;6362;50.208;9.182;2023-04-26T08:08:50;100095.13;;;8.93;47.25
12594;BME280;6362;50.208;9.182;2023-04-26T08:11:17;100096.88;;;9.12;49.16
12594;BME280;6362;50.208;9.182;2023-04-26T08:13:43;100089.97;;;9.19;48.72
12594;BME280;6362;50.208;9.182;2023-04-26T08:16:09;100095.16;;;9.31;48.08
12594;BME280;6362;50.208;9.182;2023-04-26T08:18:34;100101.22;;;9.62;47.33
12594;BME280;6362;50.208;9.182;2023-04-26T08:21:00;100099.50;;;9.46;45.96
12594;BME280;6362;50.208;9.182;2023-04-26T08:23:26;100102.06;;;9.53;46.27
12594;BME280;6362;50.208;9.182;2023-04-26T08:25:52;100088.22;;;9.79;44.47
12594;BME280;6362;50.208;9.182;2023-04-26T08:28:18;100090.84;;;9.44;43.45
12594;BME280;6362;50.208;9.182;2023-04-26T08:30:43;100094.28;;;9.64;43.19
12594;BME280;6362;50.208;9.182;2023-04-26T08:33:09;100098.59;;;9.81;44.28
12594;BME280;6362;50.208;9.182;2023-04-26T08:35:34;100103.78;;;9.79;45.39
12594;BME280;6362;50.208;9.182;2023-04-26T08:38:00;100097.75;;;9.54;45.50
12594;BME280;6362;50.208;9.182;2023-04-26T08:40:26;100096.00;;;9.68;45.44
12594;BME280;6362;50.208;9.182;2023-04-26T08:42:51;100093.41;;;9.55;46.51
12594;BME280;6362;50.208;9.182;2023-04-26T08:45:19;100095.13;;;9.82;46.09
12594;BME280;6362;50.208;9.182;2023-04-26T08:47:50;100098.59;;;9.79;47.06
12594;BME280;6362;50.208;9.182;2023-04-26T08:50:22;100095.06;;;10.12;46.02
12594;BME280;6362;50.208;9.182;2023-04-26T08:52:50;100095.88;;;10.31;45.59
12594;BME280;6362;50.208;9.182;2023-04-26T08:55:17;100092.41;;;10.34;44.83
12594;BME280;6362;50.208;9.182;2023-04-26T08:57:48;100092.38;;;10.44;46.19
12594;BME280;6362;50.208;9.182;2023-04-26T09:00:15;100090.41;;;10.84;46.74
12594;BME280;6362;50.208;9.182;2023-04-26T09:02:45;100094.84;;;10.72;42.62
12594;BME280;6362;50.208;9.182;2023-04-26T09:05:11;100087.94;;;10.62;44.45
12594;BME280;6362;50.208;9.182;2023-04-26T09:07:46;100093.22;;;10.45;44.06
12594;BME280;6362;50.208;9.182;2023-04-26T09:10:12;100090.47;;;10.78;44.23
12594;BME280;6362;50.208;9.182;2023-04-26T09:12:39;100086.94;;;10.82;42.07
12594;BME280;6362;50.208;9.182;2023-04-26T09:15:05;100086.00;;;10.93;41.99
12594;BME280;6362;50.208;9.182;2023-04-26T09:17:38;100080.56;;;11.28;41.70
12594;BME280;6362;50.208;9.182;2023-04-26T09:20:28;100078.91;;;11.19;41.72
12594;BME280;6362;50.208;9.182;2023-04-26T09:23:05;100083.13;;;11.32;41.22
12594;BME280;6362;50.208;9.182;2023-04-26T09:25:31;100089.28;;;11.21;41.35
12594;BME280;6362;50.208;9.182;2023-04-26T09:27:58;100087.63;;;11.12;40.82
12594;BME280;6362;50.208;9.182;2023-04-26T09:30:24;100086.53;;;11.37;40.95
12594;BME280;6362;50.208;9.182;2023-04-26T09:33:01;100087.13;;;11.72;42.60
12594;BME280;6362;50.208;9.182;2023-04-26T09:38:12;100069.81;;;12.45;38.07
12594;BME280;6362;50.208;9.182;2023-04-26T09:40:39;100076.78;;;12.44;38.50
12594;BME280;6362;50.208;9.182;2023-04-26T09:43:10;100073.66;;;12.16;38.54
12594;BME280;6362;50.208;9.182;2023-04-26T09:45:56;100073.03;;;11.93;39.10
12594;BME280;6362;50.208;9.182;2023-04-26T09:48:27;100069.59;;;11.87;39.16
12594;BME280;6362;50.208;9.182;2023-04-26T09:50:58;100076.34;;;11.10;38.90
12594;BME280;6362;50.208;9.182;2023-04-26T09:53:36;100080.59;;;11.25;39.63
12594;BME280;6362;50.208;9.182;2023-04-26T09:58:53;100080.41;;;11.49;41.81
12594;BME280;6362;50.208;9.182;2023-04-26T10:01:27;100075.84;;;11.70;39.66
12594;BME280;6362;50.208;9.182;2023-04-26T10:03:59;100067.00;;;11.87;38.41
12594;BME280;6362;50.208;9.182;2023-04-26T10:06:26;100070.34;;;12.00;39.10
12594;BME280;6362;50.208;9.182;2023-04-26T10:08:53;100059.72;;;12.17;39.58
12594;BME280;6362;50.208;9.182;2023-04-26T10:11:20;100060.47;;;12.27;37.65
12594;BME280;6362;50.208;9.182;2023-04-26T10:13:49;100064.31;;;11.94;40.84
12594;BME280;6362;50.208;9.182;2023-04-26T10:16:15;100065.22;;;11.94;40.55
12594;BME280;6362;50.208;9.182;2023-04-26T10:18:40;100061.78;;;11.87;39.01
12594;BME280;6362;50.208;9.182;2023-04-26T10:23:35;100064.47;;;11.81;37.84
12594;BME280;6362;50.208;9.182;2023-04-26T10:26:01;100060.56;;;12.19;37.42
12594;BME280;6362;50.208;9.182;2023-04-26T10:31:05;100056.84;;;11.61;38.86
12594;BME280;6362;50.208;9.182;2023-04-26T10:33:32;100054.16;;;11.68;39.47
12594;BME280;6362;50.208;9.182;2023-04-26T10:36:12;100047.31;;;11.57;38.58
12594;BME280;6362;50.208;9.182;2023-04-26T10:38:39;100045.97;;;11.17;38.97
12594;BME280;6362;50.208;9.182;2023-04-26T10:41:28;100047.63;;;11.21;40.04
12594;BME280;6362;50.208;9.182;2023-04-26T10:43:59;100051.06;;;11.29;39.70
12594;BME280;6362;50.208;9.182;2023-04-26T10:46:33;100050.06;;;11.41;39.77
12594;BME280;6362;50.208;9.182;2023-04-26T10:49:12;100041.13;;;11.69;40.21
12594;BME280;6362;50.208;9.182;2023-04-26T10:51:37;100032.88;;;12.10;38.28
12594;BME280;6362;50.208;9.182;2023-04-26T10:54:03;100040.44;;;12.30;36.62
12594;BME280;6362;50.208;9.182;2023-04-26T10:59:07;100029.28;;;12.19;35.79
12594;BME280;6362;50.208;9.182;2023-04-26T11:01:33;100036.19;;;12.23;34.85
12594;BME280;6362;50.208;9.182;2023-04-26T11:06:24;100029.16;;;12.30;38.04
12594;BME280;6362;50.208;9.182;2023-04-26T11:08:51;100034.22;;;12.40;38.01
12594;BME280;6362;50.208;9.182;2023-04-26T11:11:17;100029.75;;;12.49;37.39
12594;BME280;6362;50.208;9.182;2023-04-26T11:13:46;100028.66;;;12.66;37.26
12594;BME280;6362;50.208;9.182;2023-04-26T11:16:13;100018.16;;;12.69;36.49
12594;BME280;6362;50.208;9.182;2023-04-26T11:18:43;100006.84;;;12.69;35.91
12594;BME280;6362;50.208;9.182;2023-04-26T11:21:09;100016.47;;;12.65;36.50
12594;BME280;6362;50.208;9.182;2023-04-26T11:23:36;100013.63;;;12.19;36.43
12594;BME280;6362;50.208;9.182;2023-04-26T11:26:04;100021.88;;;12.53;37.20
12594;BME280;6362;50.208;9.182;2023-04-26T11:28:30;100007.69;;;13.28;37.64
12594;BME280;6362;50.208;9.182;2023-04-26T11:30:56;100012.97;;;13.73;35.84
12594;BME280;6362;50.208;9.182;2023-04-26T11:33:23;100023.94;;;14.32;37.43
12594;BME280;6362;50.208;9.182;2023-04-26T11:35:51;100016.50;;;14.54;34.29
12594;BME280;6362;50.208;9.182;2023-04-26T11:38:17;100015.13;;;14.36;33.55
12594;BME280;6362;50.208;9.182;2023-04-26T11:40:58;100002.09;;;14.35;33.15
12594;BME280;6362;50.208;9.182;2023-04-26T11:46:02;99996.91;;;14.73;35.25
12594;BME280;6362;50.208;9.182;2023-04-26T11:48:29;99993.53;;;15.04;33.33
12594;BME280;6362;50.208;9.182;2023-04-26T11:50:59;99996.63;;;15.20;32.00
12594;BME280;6362;50.208;9.182;2023-04-26T11:53:34;99987.06;;;15.51;31.60
12594;BME280;6362;50.208;9.182;2023-04-26T11:55:59;99990.81;;;15.41;31.14
12594;BME280;6362;50.208;9.182;2023-04-26T11:58:25;99992.22;;;14.86;30.33
12594;BME280;6362;50.208;9.182;2023-04-26T12:00:54;99991.31;;;14.08;32.07
12594;BME280;6362;50.208;9.182;2023-04-26T12:03:21;99998.69;;;13.89;33.52
12594;BME280;6362;50.208;9.182;2023-04-26T12:05:53;100004.19;;;14.19;33.51
12594;BME280;6362;50.208;9.182;2023-04-26T12:08:23;100001.09;;;14.40;33.92
12594;BME280;6362;50.208;9.182;2023-04-26T12:10:48;100003.00;;;14.34;33.88
12594;BME280;6362;50.208;9.182;2023-04-26T12:13:14;100008.31;;;14.29;32.86
12594;BME280;6362;50.208;9.182;2023-04-26T12:15:40;100007.63;;;14.21;33.15
12594;BME280;6362;50.208;9.182;2023-04-26T12:18:07;99998.94;;;14.19;32.66
12594;BME280;6362;50.208;9.182;2023-04-26T12:20:44;100002.41;;;14.19;33.29
12594;BME280;6362;50.208;9.182;2023-04-26T12:23:14;99998.28;;;14.09;35.90
12594;BME280;6362;50.208;9.182;2023-04-26T12:25:50;99987.94;;;14.43;34.28
12594;BME280;6362;50.208;9.182;2023-04-26T12:28:16;99990.78;;;14.34;33.36
12594;BME280;6362;50.208;9.182;2023-04-26T12:30:42;99990.28;;;14.57;33.81
12594;BME280;6362;50.208;9.182;2023-04-26T12:33:07;99980.69;;;14.58;33.31
12594;BME280;6362;50.208;9.182;2023-04-26T12:35:33;99984.44;;;15.19;33.97
12594;BME280;6362;50.208;9.182;2023-04-26T12:37:59;99982.91;;;15.43;33.06
12594;BME280;6362;50.208;9.182;2023-04-26T12:40:26;99976.31;;;15.93;29.64
12594;BME280;6362;50.208;9.182;2023-04-26T12:42:52;99980.41;;;16.61;31.95
12594;BME280;6362;50.208;9.182;2023-04-26T12:45:21;99977.56;;;17.22;31.13
12594;BME280;6362;50.208;9.182;2023-04-26T12:47:47;99968.13;;;17.41;28.90
12594;BME280;6362;50.208;9.182;2023-04-26T12:50:13;99961.09;;;17.41;29.40
12594;BME280;6362;50.208;9.182;2023-04-26T12:52:40;99961.97;;;17.42;27.70
12594;BME280;6362;50.208;9.182;2023-04-26T12:55:08;99959.97;;;17.24;29.57
12594;BME280;6362;50.208;9.182;2023-04-26T12:57:35;99958.34;;;16.95;28.96
12594;BME280;6362;50.208;9.182;2023-04-26T13:00:03;99965.69;;;16.27;29.80
12594;BME280;6362;50.208;9.182;2023-04-26T13:02:28;99967.00;;;15.83;30.99
12594;BME280;6362;50.208;9.182;2023-04-26T13:04:54;99962.56;;;15.20;31.99
12594;BME280;6362;50.208;9.182;2023-04-26T13:07:20;99967.72;;;14.89;32.91
12594;BME280;6362;50.208;9.182;2023-04-26T13:09:46;99965.66;;;15.36;32.08
12594;BME280;6362;50.208;9.182;2023-04-26T13:12:11;99962.78;;;15.77;30.95
12594;BME280;6362;50.208;9.182;2023-04-26T13:14:38;99960.59;;;16.23;30.56
12594;BME280;6362;50.208;9.182;2023-04-26T13:17:04;99963.75;;;16.34;29.74
12594;BME280;6362;50.208;9.182;2023-04-26T13:19:30;99964.22;;;16.75;28.40
12594;BME280;6362;50.208;9.182;2023-04-26T13:21:55;99968.03;;;16.93;29.80
12594;BME280;6362;50.208;9.182;2023-04-26T13:24:20;99970.41;;;17.27;29.80